createdAt,value
2023-03-11T00:00:22.434Z,67.25
2023-03-11T00:02:52.659Z,73.50
2023-03-11T00:05:24.042Z,73.75
2023-03-11T00:07:51.537Z,47.75
2023-03-11T00:10:21.528Z,55.00
2023-03-11T00:12:48.241Z,57.50
2023-03-11T00:15:15.704Z,59.50
2023-03-11T00:17:42.577Z,71.75
2023-03-11T00:20:17.684Z,75.25
2023-03-11T00:22:44.521Z,76.50
2023-03-11T00:25:12.696Z,79.00
2023-03-11T00:27:39.572Z,68.50
2023-03-11T00:30:07.511Z,70.00
2023-03-11T00:32:34.346Z,70.25
2023-03-11T00:35:01.846Z,68.50
2023-03-11T00:37:28.664Z,69.50
2023-03-11T00:39:55.445Z,73.25
2023-03-11T00:42:22.234Z,75.75
2023-03-11T00:44:49.151Z,75.00
2023-03-11T00:47:15.892Z,75.25
2023-03-11T00:49:43.150Z,66.50
2023-03-11T00:52:10.095Z,61.00
2023-03-11T00:54:36.901Z,52.75
2023-03-11T00:57:04.350Z,60.50
2023-03-11T00:59:31.126Z,60.25
2023-03-11T01:01:58.440Z,63.75
2023-03-11T01:04:25.236Z,61.00
2023-03-11T01:06:52.047Z,64.25
2023-03-11T01:09:18.836Z,62.75
2023-03-11T01:11:45.641Z,61.00
2023-03-11T01:14:12.454Z,58.50
2023-03-11T01:16:39.252Z,49.50
2023-03-11T01:19:06.171Z,52.75
2023-03-11T01:21:33.066Z,57.75
2023-03-11T01:24:00.050Z,52.00
2023-03-11T01:26:26.874Z,39.00
2023-03-11T01:28:56.091Z,38.67
2023-03-11T01:31:23.127Z,29.33
2023-03-11T01:33:50.069Z,34.67
2023-03-11T01:36:16.798Z,35.00
2023-03-11T01:38:43.664Z,35.33
2023-03-11T01:41:12.145Z,35.67
2023-03-11T01:43:45.153Z,42.25
2023-03-11T01:46:22.974Z,65.00
2023-03-11T01:48:58.631Z,70.75
2023-03-11T01:51:32.342Z,69.25
2023-03-11T01:54:05.281Z,50.75
2023-03-11T01:56:33.201Z,36.25
2023-03-11T01:59:00.624Z,28.33
2023-03-11T02:01:28.197Z,28.67
2023-03-11T02:03:56.669Z,47.00
2023-03-11T02:06:25.376Z,32.00
2023-03-11T02:08:52.735Z,47.75
2023-03-11T02:11:27.334Z,32.50
2023-03-11T02:13:59.051Z,28.33
2023-03-11T02:16:26.293Z,35.50
2023-03-11T02:18:53.407Z,48.25
2023-03-11T02:21:22.965Z,44.25
2023-03-11T02:23:55.605Z,42.50
2023-03-11T02:26:29.612Z,37.00
2023-03-11T02:28:58.381Z,45.00
2023-03-11T02:31:26.527Z,42.50
2023-03-11T02:33:54.991Z,41.50
2023-03-11T02:36:38.411Z,29.00
2023-03-11T02:39:08.423Z,45.75
2023-03-11T02:41:40.272Z,53.75
2023-03-11T02:44:09.597Z,65.25
2023-03-11T02:46:38.547Z,57.50
2023-03-11T02:49:06.628Z,55.00
2023-03-11T02:51:34.187Z,56.25
2023-03-11T02:54:04.452Z,57.75
2023-03-11T02:56:32.025Z,49.00
2023-03-11T02:58:59.790Z,38.50
2023-03-11T03:01:28.393Z,27.00
2023-03-11T03:03:55.420Z,16.00
2023-03-11T03:06:22.473Z,19.33
2023-03-11T03:08:51.517Z,15.00
2023-03-11T03:11:18.386Z,19.00
2023-03-11T03:13:46.343Z,23.00
2023-03-11T03:16:13.262Z,23.00
2023-03-11T03:18:40.078Z,19.00
2023-03-11T03:21:08.846Z,27.67
2023-03-11T03:23:37.749Z,25.00
2023-03-11T03:26:06.037Z,31.00
2023-03-11T03:28:36.116Z,25.33
2023-03-11T03:31:11.239Z,23.33
2023-03-11T03:33:40.182Z,23.33
2023-03-11T03:36:13.529Z,15.00
2023-03-11T03:38:43.561Z,17.00
2023-03-11T03:41:13.190Z,10.33
2023-03-11T03:43:41.339Z,10.67
2023-03-11T03:46:09.126Z,22.33
2023-03-11T03:48:43.219Z,26.00
2023-03-11T03:51:13.301Z,36.67
2023-03-11T03:53:48.229Z,34.00
2023-03-11T03:56:17.082Z,29.33
2023-03-11T03:58:44.649Z,30.67
2023-03-11T04:01:12.072Z,24.67
2023-03-11T04:03:40.545Z,30.67
2023-03-11T04:06:22.997Z,65.75
2023-03-11T04:08:55.754Z,25.00
2023-03-11T04:11:27.281Z,12.00
2023-03-11T04:13:54.738Z,23.00
2023-03-11T04:16:23.564Z,16.67
2023-03-11T04:18:53.184Z,24.33
2023-03-11T04:21:21.186Z,23.67
2023-03-11T04:23:48.593Z,17.33
2023-03-11T04:26:17.287Z,17.00
2023-03-11T04:28:44.102Z,20.33
2023-03-11T04:31:12.574Z,14.00
2023-03-11T04:33:39.511Z,39.75
2023-03-11T04:36:09.855Z,30.67
2023-03-11T04:38:38.019Z,34.25
2023-03-11T04:41:07.549Z,39.50
2023-03-11T04:43:36.646Z,25.33
2023-03-11T04:46:04.174Z,45.00
2023-03-11T04:48:31.487Z,45.75
2023-03-11T04:50:58.354Z,60.00
2023-03-11T04:53:25.716Z,39.75
2023-03-11T04:55:54.094Z,28.33
2023-03-11T04:58:21.699Z,26.67
2023-03-11T05:00:48.625Z,34.33
2023-03-11T05:03:16.791Z,30.50
2023-03-11T05:05:44.878Z,25.67
2023-03-11T05:08:14.719Z,31.25
2023-03-11T05:10:42.869Z,27.00
2023-03-11T05:13:11.442Z,29.33
2023-03-11T05:15:41.117Z,24.00
2023-03-11T05:18:09.880Z,48.75
2023-03-11T05:20:39.860Z,52.75
2023-03-11T05:23:08.558Z,66.25
2023-03-11T05:25:38.937Z,33.25
2023-03-11T05:28:06.596Z,50.50
2023-03-11T05:30:37.997Z,38.25
2023-03-11T05:33:05.091Z,39.25
2023-03-11T05:35:32.174Z,36.00
2023-03-11T05:37:59.246Z,32.75
2023-03-11T05:40:28.453Z,65.75
2023-03-11T05:42:55.861Z,20.67
2023-03-11T05:45:23.097Z,33.67
2023-03-11T05:47:54.458Z,36.50
2023-03-11T05:50:21.540Z,39.25
2023-03-11T05:52:50.612Z,40.00
2023-03-11T05:55:18.538Z,38.75
2023-03-11T05:57:46.389Z,44.50
2023-03-11T06:00:13.804Z,52.50
2023-03-11T06:02:42.111Z,51.75
2023-03-11T06:05:13.742Z,41.25
2023-03-11T06:07:42.091Z,43.25
2023-03-11T06:10:09.993Z,48.75
2023-03-11T06:12:38.667Z,62.00
2023-03-11T06:15:25.774Z,57.75
2023-03-11T06:17:53.664Z,55.50
2023-03-11T06:20:20.515Z,64.00
2023-03-11T06:22:50.885Z,60.00
2023-03-11T06:25:18.781Z,56.75
2023-03-11T06:27:51.653Z,72.00
2023-03-11T06:30:20.249Z,61.50
2023-03-11T06:32:55.282Z,69.75
2023-03-11T06:35:22.307Z,53.75
2023-03-11T06:37:49.181Z,44.50
2023-03-11T06:40:16.149Z,41.33
2023-03-11T06:42:43.027Z,30.00
2023-03-11T06:45:11.291Z,18.33
2023-03-11T06:47:38.680Z,21.33
2023-03-11T06:50:07.509Z,27.67
2023-03-11T06:52:34.423Z,39.67
2023-03-11T06:55:01.633Z,47.25
2023-03-11T06:57:30.966Z,62.00
2023-03-11T07:00:00.886Z,51.25
2023-03-11T07:02:29.557Z,62.00
2023-03-11T07:04:56.504Z,30.00
2023-03-11T07:07:23.449Z,44.50
2023-03-11T07:09:50.254Z,34.00
2023-03-11T07:12:17.861Z,41.67
2023-03-11T07:14:45.312Z,38.67
2023-03-11T07:17:12.872Z,34.33
2023-03-11T07:19:46.202Z,44.75
2023-03-11T07:22:13.053Z,42.33
2023-03-11T07:24:39.798Z,44.00
2023-03-11T07:27:06.827Z,49.25
2023-03-11T07:29:33.647Z,51.75
2023-03-11T07:32:00.462Z,52.50
2023-03-11T07:34:27.315Z,55.00
2023-03-11T07:36:54.247Z,50.75
2023-03-11T07:39:22.700Z,56.00
2023-03-11T07:41:49.507Z,73.25
2023-03-11T07:44:17.460Z,84.75
2023-03-11T07:46:45.132Z,86.50
2023-03-11T07:49:12.495Z,86.25
2023-03-11T07:51:43.947Z,69.50
2023-03-11T07:54:12.907Z,72.00
2023-03-11T07:56:39.973Z,70.00
2023-03-11T07:59:06.818Z,72.00
2023-03-11T08:01:37.048Z,69.75
2023-03-11T08:04:06.162Z,73.50
2023-03-11T08:06:34.901Z,83.50
2023-03-11T08:09:04.612Z,90.75
2023-03-11T08:11:32.303Z,98.00
2023-03-11T08:13:59.618Z,85.25
2023-03-11T08:16:26.814Z,130.75
2023-03-11T08:18:54.236Z,91.00
2023-03-11T08:21:24.326Z,129.75
2023-03-11T08:23:52.163Z,118.00
2023-03-11T08:26:24.319Z,108.25
2023-03-11T08:28:51.325Z,93.25
2023-03-11T08:31:24.590Z,106.25
2023-03-11T08:33:53.628Z,97.50
2023-03-11T08:36:21.059Z,96.75
2023-03-11T08:38:48.024Z,90.25
2023-03-11T08:41:15.696Z,90.75
2023-03-11T08:43:43.056Z,101.00
2023-03-11T08:46:17.942Z,102.00
2023-03-11T08:48:45.395Z,114.00
2023-03-11T08:51:13.717Z,125.50
2023-03-11T08:53:40.876Z,83.00
2023-03-11T08:56:08.058Z,80.00
2023-03-11T08:58:35.558Z,64.25
2023-03-11T09:01:02.866Z,79.00
2023-03-11T09:03:36.110Z,87.00
2023-03-11T09:06:06.576Z,95.00
2023-03-11T09:08:33.925Z,101.50
2023-03-11T09:11:00.998Z,78.00
2023-03-11T09:13:27.982Z,80.50
2023-03-11T09:15:54.862Z,67.25
2023-03-11T09:18:21.729Z,58.75
2023-03-11T09:20:48.727Z,56.50
2023-03-11T09:23:17.223Z,73.25
2023-03-11T09:25:44.912Z,67.25
2023-03-11T09:28:11.768Z,37.33
2023-03-11T09:30:38.608Z,43.00
2023-03-11T09:33:05.387Z,31.67
2023-03-11T09:35:32.723Z,43.25
2023-03-11T09:37:59.676Z,49.50
2023-03-11T09:40:31.342Z,66.00
2023-03-11T09:43:24.928Z,63.25
2023-03-11T09:46:02.469Z,53.75
2023-03-11T09:48:35.030Z,56.00
2023-03-11T09:51:20.828Z,53.75
2023-03-11T09:53:53.768Z,92.50
2023-03-11T09:56:22.503Z,71.00
2023-03-11T09:58:52.585Z,83.75
2023-03-11T10:01:28.566Z,74.00
2023-03-11T10:03:59.801Z,66.00
2023-03-11T10:06:29.701Z,59.25
2023-03-11T10:09:12.536Z,67.50
2023-03-11T10:12:02.576Z,54.50
2023-03-11T10:14:40.183Z,97.75
2023-03-11T10:17:31.526Z,71.75
2023-03-11T10:20:13.354Z,50.75
2023-03-11T10:23:07.385Z,24.00
2023-03-11T10:25:52.222Z,31.67
2023-03-11T10:28:22.533Z,41.33
2023-03-11T10:31:03.661Z,35.33
2023-03-11T10:33:47.990Z,35.00
2023-03-11T10:36:24.011Z,47.25
2023-03-11T10:38:52.907Z,47.50
2023-03-11T10:41:43.049Z,47.50
2023-03-11T10:44:17.453Z,24.67
2023-03-11T10:46:45.258Z,36.00
2023-03-11T10:49:17.552Z,53.25
2023-03-11T10:51:50.730Z,17.00
2023-03-11T10:54:46.404Z,26.00
2023-03-11T10:57:29.347Z,27.33
2023-03-11T10:59:58.753Z,45.75
2023-03-11T11:02:51.404Z,59.25
2023-03-11T11:05:18.236Z,32.25
2023-03-11T11:07:46.802Z,31.50
2023-03-11T11:10:22.481Z,33.75
2023-03-11T11:12:54.999Z,34.25
2023-03-11T11:15:36.910Z,36.25
2023-03-11T11:18:18.071Z,15.25
2023-03-11T11:21:02.296Z,39.00
2023-03-11T11:23:42.588Z,14.67
2023-03-11T11:26:22.725Z,2.67
2023-03-11T11:29:13.785Z,16.25
2023-03-11T11:31:45.643Z,22.50
2023-03-11T11:34:32.340Z,32.25
2023-03-11T11:37:03.549Z,18.25
2023-03-11T11:39:51.435Z,22.25
2023-03-11T11:42:23.538Z,17.50
2023-03-11T11:44:57.657Z,29.75
2023-03-11T11:47:48.648Z,13.00
2023-03-11T11:50:27.968Z,19.50
2023-03-11T11:53:20.527Z,35.00
2023-03-11T11:55:50.234Z,6.50
2023-03-11T11:58:17.509Z,20.00
2023-03-11T12:01:15.045Z,21.50
2023-03-11T12:04:19.512Z,22.50
2023-03-11T12:07:12.315Z,44.75
2023-03-11T12:09:51.385Z,24.25
2023-03-11T12:12:19.179Z,25.00
2023-03-11T12:15:14.587Z,15.50
2023-03-11T12:17:44.567Z,26.75
2023-03-11T12:20:27.893Z,24.00
2023-03-11T12:23:08.237Z,25.00
2023-03-11T12:25:46.981Z,7.33
2023-03-11T12:28:31.933Z,39.25
2023-03-11T12:31:03.753Z,61.50
2023-03-11T12:33:35.610Z,21.25
2023-03-11T12:36:04.449Z,15.75
2023-03-11T12:38:34.324Z,12.50
2023-03-11T12:41:08.987Z,9.67
2023-03-11T12:43:35.875Z,25.25
2023-03-11T12:46:05.004Z,22.00
2023-03-11T12:49:12.059Z,45.75
2023-03-11T12:51:40.389Z,11.00
2023-03-11T12:54:31.456Z,34.75
2023-03-11T12:57:18.607Z,51.75
2023-03-11T13:00:23.182Z,73.00
2023-03-11T13:03:29.702Z,71.50
2023-03-11T13:06:19.975Z,68.00
2023-03-11T13:08:50.512Z,44.25
2023-03-11T13:11:47.729Z,58.00
2023-03-11T13:14:22.288Z,27.25
2023-03-11T13:16:50.252Z,1.67
2023-03-11T13:19:26.420Z,28.25
2023-03-11T13:22:01.796Z,26.75
2023-03-11T13:24:31.818Z,1.00
2023-03-11T13:26:58.615Z,13.00
2023-03-11T13:29:42.320Z,8.67
2023-03-11T13:32:30.550Z,14.67
2023-03-11T13:35:12.238Z,51.25
2023-03-11T13:37:44.589Z,24.75
2023-03-11T13:40:20.129Z,19.25
2023-03-11T13:42:50.781Z,26.75
2023-03-11T13:45:38.710Z,28.25
2023-03-11T13:48:16.513Z,24.00
2023-03-11T13:50:52.052Z,31.00
2023-03-11T13:53:30.052Z,14.50
2023-03-11T13:55:56.913Z,12.50
2023-03-11T13:58:25.897Z,67.50
2023-03-11T14:01:01.211Z,5.33
2023-03-11T14:03:41.690Z,12.67
2023-03-11T14:06:19.331Z,28.75
2023-03-11T14:08:57.541Z,24.00
2023-03-11T14:11:32.070Z,58.00
2023-03-11T14:13:59.004Z,11.75
2023-03-11T14:16:44.324Z,9.33
2023-03-11T14:19:16.623Z,4.33
2023-03-11T14:21:45.581Z,4.67
2023-03-11T14:24:30.276Z,3.00
2023-03-11T14:27:01.393Z,2.00
2023-03-11T14:29:34.330Z,2.00
2023-03-11T14:32:15.057Z,0.33
2023-03-11T14:34:41.871Z,50.25
2023-03-11T14:37:30.712Z,7.33
2023-03-11T14:39:57.738Z,4.00
2023-03-11T14:42:40.096Z,2.67
2023-03-11T14:45:17.259Z,20.75
2023-03-11T14:47:56.825Z,17.67
2023-03-11T14:50:30.706Z,17.75
2023-03-11T14:53:15.954Z,28.75
2023-03-11T14:56:04.102Z,40.50
2023-03-11T14:59:07.919Z,43.25
2023-03-11T15:01:41.985Z,55.50
2023-03-11T15:04:11.753Z,38.50
2023-03-11T15:06:41.229Z,32.50
2023-03-11T15:09:15.779Z,30.00
2023-03-11T15:11:55.342Z,46.00
2023-03-11T15:14:36.059Z,64.50
2023-03-11T15:17:37.126Z,87.00
2023-03-11T15:20:27.739Z,14.00
2023-03-11T15:22:58.389Z,76.50
2023-03-11T15:25:25.285Z,81.25
2023-03-11T15:27:52.334Z,81.50
2023-03-11T15:30:28.669Z,72.25
2023-03-11T15:32:56.942Z,73.75
2023-03-11T15:35:26.744Z,88.50
2023-03-11T15:38:21.550Z,94.25
2023-03-11T15:40:58.623Z,113.00
2023-03-11T15:43:33.557Z,80.50
2023-03-11T15:46:02.836Z,68.75
2023-03-11T15:48:31.300Z,69.00
2023-03-11T15:50:59.619Z,91.25
2023-03-11T15:53:27.713Z,89.50
2023-03-11T15:56:06.596Z,61.00
2023-03-11T15:58:35.621Z,32.25
2023-03-11T16:01:02.834Z,76.50
2023-03-11T16:03:31.355Z,52.00
2023-03-11T16:05:58.421Z,69.00
2023-03-11T16:08:25.257Z,51.75
2023-03-11T16:10:52.033Z,39.00
2023-03-11T16:13:18.805Z,78.00
2023-03-11T16:15:47.258Z,71.50
2023-03-11T16:18:14.186Z,52.75
2023-03-11T16:20:51.200Z,81.75
2023-03-11T16:23:44.825Z,54.75
2023-03-11T16:26:17.487Z,48.00
2023-03-11T16:28:44.545Z,59.75
2023-03-11T16:31:11.334Z,28.75
2023-03-11T16:33:38.216Z,50.00
2023-03-11T16:36:05.929Z,36.50
2023-03-11T16:38:42.521Z,58.75
2023-03-11T16:41:09.339Z,70.75
2023-03-11T16:43:36.176Z,71.25
2023-03-11T16:46:03.139Z,52.75
2023-03-11T16:48:30.101Z,36.00
2023-03-11T16:50:56.974Z,58.75
2023-03-11T16:53:25.338Z,83.00
2023-03-11T16:55:53.616Z,77.75
2023-03-11T16:58:20.668Z,39.50
2023-03-11T17:00:47.635Z,49.00
2023-03-11T17:03:18.214Z,84.00
2023-03-11T17:05:47.989Z,63.00
2023-03-11T17:08:16.392Z,32.25
2023-03-11T17:10:45.216Z,20.25
2023-03-11T17:13:13.740Z,77.25
2023-03-11T17:15:44.368Z,46.75
2023-03-11T17:18:11.992Z,65.75
2023-03-11T17:20:40.594Z,46.50
2023-03-11T17:23:07.354Z,33.75
2023-03-11T17:25:34.106Z,39.50
2023-03-11T17:28:01.031Z,95.00
2023-03-11T17:30:36.799Z,113.75
2023-03-11T17:33:04.438Z,99.75
2023-03-11T17:35:31.356Z,166.00
2023-03-11T17:37:58.495Z,80.00
2023-03-11T17:40:27.052Z,78.25
2023-03-11T17:42:54.089Z,58.00
2023-03-11T17:45:20.932Z,42.50
2023-03-11T17:47:47.796Z,101.50
2023-03-11T17:50:14.864Z,71.75
2023-03-11T17:52:41.621Z,77.00
2023-03-11T17:55:09.288Z,92.75
2023-03-11T17:57:45.204Z,78.50
2023-03-11T18:00:14.874Z,53.50
2023-03-11T18:02:42.349Z,41.00
2023-03-11T18:05:09.529Z,20.50
2023-03-11T18:07:39.465Z,61.50
2023-03-11T18:10:07.193Z,59.25
2023-03-11T18:12:34.207Z,51.00
2023-03-11T18:15:04.283Z,68.50
2023-03-11T18:17:31.662Z,49.75
2023-03-11T18:20:01.986Z,62.00
2023-03-11T18:22:28.795Z,43.50
2023-03-11T18:24:55.625Z,61.00
2023-03-11T18:27:24.538Z,70.25
2023-03-11T18:29:51.941Z,73.75
2023-03-11T18:32:20.839Z,42.75
2023-03-11T18:34:51.413Z,70.75
2023-03-11T18:37:18.381Z,55.25
2023-03-11T18:39:45.144Z,50.75
2023-03-11T18:42:14.068Z,60.25
2023-03-11T18:44:41.785Z,17.25
2023-03-11T18:47:08.563Z,39.25
2023-03-11T18:49:35.391Z,56.75
2023-03-11T18:52:02.238Z,66.75
2023-03-11T18:54:29.054Z,67.25
2023-03-11T18:56:55.925Z,35.25
2023-03-11T18:59:23.088Z,48.75
2023-03-11T19:01:51.049Z,29.75
2023-03-11T19:04:17.949Z,19.50
2023-03-11T19:06:44.916Z,25.00
2023-03-11T19:09:11.681Z,32.50
2023-03-11T19:11:38.511Z,89.25
2023-03-11T19:14:05.295Z,76.50
2023-03-11T19:16:32.330Z,94.50
2023-03-11T19:18:59.283Z,77.75
2023-03-11T19:21:26.296Z,89.75
2023-03-11T19:23:55.324Z,89.50
2023-03-11T19:26:33.761Z,77.25
2023-03-11T19:29:04.597Z,87.00
2023-03-11T19:31:31.505Z,61.00
2023-03-11T19:33:59.656Z,74.75
2023-03-11T19:36:27.677Z,46.00
2023-03-11T19:38:54.437Z,59.50
2023-03-11T19:41:23.103Z,63.50
2023-03-11T19:43:50.034Z,54.25
2023-03-11T19:46:19.984Z,28.50
2023-03-11T19:48:47.009Z,38.25
2023-03-11T19:51:14.362Z,51.00
2023-03-11T19:53:41.877Z,38.25
2023-03-11T19:56:09.739Z,52.50
2023-03-11T19:58:36.782Z,59.00
2023-03-11T20:01:04.176Z,91.50
2023-03-11T20:03:31.756Z,96.25
2023-03-11T20:06:05.480Z,60.25
2023-03-11T20:08:36.727Z,16.50
2023-03-11T20:11:05.636Z,102.25
2023-03-11T20:13:34.705Z,66.50
2023-03-11T20:16:10.016Z,78.50
2023-03-11T20:18:37.280Z,88.75
2023-03-11T20:21:06.301Z,98.00
2023-03-11T20:23:33.636Z,95.50
2023-03-11T20:26:00.563Z,93.00
2023-03-11T20:28:27.426Z,99.00
2023-03-11T20:30:55.410Z,90.25
2023-03-11T20:33:22.232Z,85.00
2023-03-11T20:35:49.073Z,81.00
2023-03-11T20:38:16.047Z,79.00
2023-03-11T20:40:43.208Z,79.25
2023-03-11T20:43:10.172Z,96.50
2023-03-11T20:45:36.969Z,61.50
2023-03-11T20:48:04.217Z,91.25
2023-03-11T20:50:31.031Z,140.50
2023-03-11T20:52:57.969Z,100.00
2023-03-11T20:55:25.613Z,99.25
2023-03-11T20:57:54.402Z,100.00
2023-03-11T21:00:21.644Z,105.50
2023-03-11T21:02:49.040Z,100.25
2023-03-11T21:05:15.883Z,93.00
2023-03-11T21:07:42.694Z,136.75
2023-03-11T21:10:11.986Z,101.00
2023-03-11T21:12:38.931Z,121.25
2023-03-11T21:15:07.784Z,84.25
2023-03-11T21:17:35.352Z,75.25
2023-03-11T21:20:05.181Z,89.25
2023-03-11T21:22:33.149Z,83.75
2023-03-11T21:25:00.123Z,78.25
2023-03-11T21:27:27.235Z,61.00
2023-03-11T21:29:57.956Z,78.75
2023-03-11T21:32:26.670Z,86.00
2023-03-11T21:35:00.824Z,56.50
2023-03-11T21:37:28.709Z,25.75
2023-03-11T21:39:55.715Z,27.25
2023-03-11T21:42:22.902Z,47.50
2023-03-11T21:44:51.390Z,70.75
2023-03-11T21:47:19.664Z,38.00
2023-03-11T21:49:46.692Z,44.25
2023-03-11T21:52:13.777Z,46.00
2023-03-11T21:54:40.760Z,65.25
2023-03-11T21:57:07.667Z,43.50
2023-03-11T21:59:34.641Z,55.00
2023-03-11T22:02:03.290Z,43.75
2023-03-11T22:04:31.568Z,36.25
2023-03-11T22:06:58.554Z,92.75
2023-03-11T22:09:26.364Z,58.00
2023-03-11T22:11:53.547Z,101.50
2023-03-11T22:14:20.437Z,85.75
2023-03-11T22:16:47.374Z,61.75
2023-03-11T22:19:14.415Z,66.25
2023-03-11T22:21:41.292Z,28.50
2023-03-11T22:24:08.206Z,50.00
2023-03-11T22:26:35.321Z,41.00
2023-03-11T22:29:04.171Z,56.25
2023-03-11T22:31:31.665Z,46.00
2023-03-11T22:33:58.660Z,29.00
2023-03-11T22:36:25.493Z,40.50
2023-03-11T22:38:52.372Z,48.50
2023-03-11T22:41:20.354Z,61.25
2023-03-11T22:43:47.431Z,24.50
2023-03-11T22:46:14.569Z,37.50
2023-03-11T22:48:41.669Z,31.00
2023-03-11T22:51:08.644Z,30.00
2023-03-11T22:53:35.502Z,33.50
2023-03-11T22:56:10.870Z,42.25
2023-03-11T22:58:38.097Z,25.50
2023-03-11T23:01:05.486Z,24.50
2023-03-11T23:03:33.442Z,19.75
2023-03-11T23:06:06.890Z,31.50
2023-03-11T23:08:34.943Z,44.00
2023-03-11T23:11:04.546Z,52.75
2023-03-11T23:13:32.208Z,52.25
2023-03-11T23:16:05.120Z,43.50
2023-03-11T23:18:32.003Z,73.25
2023-03-11T23:20:58.861Z,59.00
2023-03-11T23:23:25.874Z,61.25
2023-03-11T23:25:53.355Z,56.25
2023-03-11T23:28:20.585Z,60.75
2023-03-11T23:30:47.736Z,59.75
2023-03-11T23:33:14.601Z,62.00
2023-03-11T23:35:42.163Z,60.75
2023-03-11T23:38:10.134Z,68.25
2023-03-11T23:40:39.798Z,70.00
2023-03-11T23:43:06.508Z,77.00
2023-03-11T23:45:33.258Z,73.25
2023-03-11T23:48:00.139Z,80.25
2023-03-11T23:50:26.888Z,80.25
2023-03-11T23:52:53.756Z,70.75
2023-03-11T23:55:20.514Z,79.50
2023-03-11T23:57:47.242Z,71.50
